createdAt,value
2019-04-16T00:04:32.304Z,66.40
2019-04-16T00:09:51.380Z,66.13
2019-04-16T00:15:00.726Z,100.00
2019-04-16T00:20:07.274Z,66.60
2019-04-16T00:25:11.854Z,66.60
2019-04-16T00:30:17.555Z,65.70
2019-04-16T00:35:22.138Z,100.00
2019-04-16T00:40:27.360Z,70.16
2019-04-16T00:45:31.919Z,100.00
2019-04-16T00:50:37.512Z,69.62
2019-04-16T00:55:45.058Z,69.62
2019-04-16T01:00:49.428Z,69.62
2019-04-16T01:05:54.687Z,69.62
2019-04-16T01:10:59.127Z,100.00
2019-04-16T01:16:04.254Z,70.08
2019-04-16T01:21:13.790Z,70.08
2019-04-16T01:26:16.511Z,70.08
2019-04-16T01:31:41.412Z,70.08
2019-04-16T01:36:48.139Z,70.08
2019-04-16T01:41:53.394Z,70.08
2019-04-16T01:47:03.394Z,70.08
2019-04-16T01:52:05.638Z,70.08
2019-04-16T01:57:10.707Z,70.08
2019-04-16T02:02:16.037Z,70.08
2019-04-16T02:07:21.326Z,70.08
2019-04-16T02:12:26.528Z,70.08
2019-04-16T02:17:34.684Z,70.08
2019-04-16T02:22:42.307Z,70.08
2019-04-16T02:27:46.800Z,70.08
2019-04-16T02:32:52.037Z,70.08
2019-04-16T02:37:57.195Z,70.08
2019-04-16T02:43:06.543Z,70.08
2019-04-16T02:48:14.668Z,70.08
2019-04-16T02:53:34.070Z,70.08
2019-04-16T02:58:40.895Z,70.08
2019-04-16T03:03:47.747Z,70.08
2019-04-16T03:08:52.897Z,70.08
2019-04-16T03:13:59.431Z,70.08
2019-04-16T03:19:06.358Z,70.08
2019-04-16T03:24:11.458Z,70.08
2019-04-16T03:29:16.612Z,70.08
2019-04-16T03:34:22.632Z,70.08
2019-04-16T03:39:27.817Z,70.08
2019-04-16T03:44:33.551Z,70.08
2019-04-16T03:49:39.763Z,70.08
2019-04-16T03:54:44.829Z,70.08
2019-04-16T03:59:49.914Z,70.08
2019-04-16T04:04:57.569Z,70.08
2019-04-16T04:10:01.370Z,70.08
2019-04-16T04:15:07.233Z,74.02
2019-04-16T04:20:14.612Z,73.88
2019-04-16T04:25:19.457Z,73.60
2019-04-16T04:30:25.691Z,73.57
2019-04-16T04:35:31.566Z,73.30
2019-04-16T04:40:44.318Z,72.88
2019-04-16T04:45:42.323Z,72.52
2019-04-16T04:50:46.757Z,72.37
2019-04-16T04:55:51.259Z,72.13
2019-04-16T05:00:55.935Z,71.79
2019-04-16T05:06:12.029Z,71.70
2019-04-16T05:11:17.109Z,71.30
2019-04-16T05:16:22.871Z,71.38
2019-04-16T05:21:27.376Z,72.31
2019-04-16T05:26:33.529Z,72.47
2019-04-16T05:31:38.181Z,72.26
2019-04-16T05:36:46.201Z,71.36
2019-04-16T05:41:50.462Z,70.84
2019-04-16T05:46:54.993Z,70.01
2019-04-16T05:52:02.890Z,69.13
2019-04-16T05:57:07.506Z,68.15
2019-04-16T06:02:15.068Z,67.94
2019-04-16T06:07:19.761Z,66.06
2019-04-16T06:12:25.940Z,65.11
2019-04-16T06:17:48.375Z,62.12
2019-04-16T06:23:01.508Z,60.92
2019-04-16T06:28:07.741Z,59.53
2019-04-16T06:33:19.719Z,59.24
2019-04-16T06:38:25.916Z,58.32
2019-04-16T06:43:33.112Z,57.80
2019-04-16T06:48:51.535Z,55.28
2019-04-16T06:54:16.008Z,54.86
2019-04-16T06:59:22.173Z,55.85
2019-04-16T07:04:30.997Z,51.34
2019-04-16T07:09:41.896Z,51.67
2019-04-16T07:14:45.606Z,49.71
2019-04-16T07:19:49.814Z,48.82
2019-04-16T07:24:55.807Z,48.34
2019-04-16T07:30:06.941Z,48.03
2019-04-16T07:35:18.541Z,48.39
2019-04-16T07:40:40.954Z,47.12
2019-04-16T07:45:54.313Z,47.59
2019-04-16T07:51:16.623Z,48.36
2019-04-16T07:56:22.761Z,46.34
2019-04-16T08:01:27.261Z,46.08
2019-04-16T08:06:31.873Z,45.49
2019-04-16T08:11:36.443Z,44.84
2019-04-16T08:16:47.624Z,42.45
2019-04-16T08:21:47.217Z,43.10
2019-04-16T08:26:51.762Z,40.02
2019-04-16T08:31:56.317Z,40.19
2019-04-16T08:37:00.816Z,41.96
2019-04-16T08:42:05.574Z,40.21
2019-04-16T08:47:12.069Z,39.01
2019-04-16T08:52:16.272Z,38.66
2019-04-16T08:57:20.916Z,39.52
2019-04-16T09:02:27.063Z,37.16
2019-04-16T09:07:40.991Z,38.67
2019-04-16T09:13:02.071Z,37.53
2019-04-16T09:17:54.329Z,36.40
2019-04-16T09:22:59.304Z,36.45
2019-04-16T09:28:09.895Z,36.19
2019-04-16T09:33:13.859Z,36.36
2019-04-16T09:38:20.022Z,36.54
2019-04-16T09:43:32.211Z,36.90
2019-04-16T09:48:36.922Z,36.13
2019-04-16T09:53:41.388Z,35.17
2019-04-16T09:58:46.155Z,34.72
2019-04-16T10:03:54.965Z,33.72
2019-04-16T10:08:59.560Z,34.94
2019-04-16T10:14:04.400Z,34.46
2019-04-16T10:19:09.232Z,34.90
2019-04-16T10:24:15.453Z,34.01
2019-04-16T10:29:21.452Z,33.67
2019-04-16T10:34:26.008Z,33.69
2019-04-16T10:39:41.632Z,33.32
2019-04-16T10:44:47.857Z,35.23
2019-04-16T10:49:54.069Z,32.79
2019-04-16T10:55:03.486Z,33.36
2019-04-16T11:00:19.585Z,30.72
2019-04-16T11:05:25.806Z,31.34
2019-04-16T11:10:30.500Z,30.46
2019-04-16T11:15:35.326Z,29.13
2019-04-16T11:20:39.965Z,29.82
2019-04-16T11:25:45.625Z,28.16
2019-04-16T11:31:05.126Z,26.75
2019-04-16T11:36:18.723Z,26.11
2019-04-16T11:41:15.820Z,25.29
2019-04-16T11:46:20.611Z,23.33
2019-04-16T11:51:25.013Z,23.10
2019-04-16T11:56:29.589Z,22.80
2019-04-16T12:01:38.671Z,22.00
2019-04-16T12:06:44.932Z,22.69
2019-04-16T12:11:56.935Z,21.63
2019-04-16T12:17:18.243Z,22.27
2019-04-16T12:22:49.657Z,21.48
2019-04-16T12:28:12.615Z,20.86
2019-04-16T12:33:29.169Z,19.81
2019-04-16T12:38:38.230Z,19.05
2019-04-16T12:43:44.369Z,19.70
2019-04-16T12:49:02.688Z,19.48
2019-04-16T12:54:11.713Z,18.43
2019-04-16T12:59:26.991Z,17.69
2019-04-16T13:04:49.538Z,17.12
2019-04-16T13:09:58.497Z,16.35
2019-04-16T13:15:14.047Z,16.41
2019-04-16T13:20:30.140Z,16.49
2019-04-16T13:25:39.269Z,16.26
2019-04-16T13:30:43.715Z,16.32
2019-04-16T13:35:48.332Z,16.87
2019-04-16T13:40:53.992Z,16.50
2019-04-16T13:45:58.868Z,15.71
2019-04-16T13:51:06.393Z,15.28
2019-04-16T13:56:24.900Z,14.69
2019-04-16T14:01:31.209Z,15.07
2019-04-16T14:06:35.763Z,14.87
2019-04-16T14:11:40.311Z,14.85
2019-04-16T14:16:45.684Z,14.36
2019-04-16T14:21:50.166Z,14.91
2019-04-16T14:26:54.723Z,14.64
2019-04-16T14:31:59.357Z,14.72
2019-04-16T14:37:03.931Z,14.70
2019-04-16T14:42:08.706Z,15.21
2019-04-16T14:47:13.164Z,14.56
2019-04-16T14:52:17.858Z,14.00
2019-04-16T14:57:22.436Z,13.96
2019-04-16T15:02:29.616Z,13.05
2019-04-16T15:07:52.748Z,12.76
2019-04-16T15:13:15.262Z,12.96
2019-04-16T15:18:27.292Z,12.79
2019-04-16T15:23:33.506Z,12.89
2019-04-16T15:28:51.946Z,12.54
2019-04-16T15:34:03.863Z,12.54
2019-04-16T15:39:16.040Z,12.78
2019-04-16T15:44:31.759Z,12.09
2019-04-16T15:49:44.984Z,11.87
2019-04-16T15:54:57.100Z,11.82
2019-04-16T16:00:06.045Z,12.41
2019-04-16T16:05:21.905Z,12.29
2019-04-16T16:10:30.942Z,12.61
2019-04-16T16:15:40.233Z,12.94
2019-04-16T16:20:41.626Z,13.74
2019-04-16T16:25:46.188Z,13.87
2019-04-16T16:30:50.738Z,14.24
2019-04-16T16:35:58.623Z,13.89
2019-04-16T16:41:03.061Z,14.29
2019-04-16T16:46:18.292Z,14.77
2019-04-16T16:51:23.333Z,15.45
2019-04-16T16:56:45.586Z,16.89
2019-04-16T17:01:56.552Z,19.76
2019-04-16T17:07:01.436Z,21.39
2019-04-16T17:12:06.058Z,22.97
2019-04-16T17:17:14.983Z,24.67
2019-04-16T17:22:18.085Z,26.04
2019-04-16T17:27:22.877Z,27.70
2019-04-16T17:32:27.634Z,29.06
2019-04-16T17:37:32.248Z,30.36
2019-04-16T17:42:38.613Z,31.17
2019-04-16T17:48:00.431Z,31.91
2019-04-16T17:53:06.766Z,32.77
2019-04-16T17:58:12.993Z,33.71
2019-04-16T18:03:19.392Z,34.90
2019-04-16T18:08:27.024Z,35.40
2019-04-16T18:13:33.635Z,36.12
2019-04-16T18:23:33.364Z,36.91
2019-04-16T18:28:39.813Z,37.36
2019-04-16T18:33:46.283Z,38.79
2019-04-16T18:38:52.878Z,38.44
2019-04-16T18:44:02.031Z,38.72
2019-04-16T18:49:11.157Z,38.99
2019-04-16T18:54:17.739Z,39.22
2019-04-16T18:59:22.363Z,38.78
2019-04-16T19:04:28.587Z,38.39
2019-04-16T19:09:33.551Z,39.10
2019-04-16T19:14:38.185Z,39.30
2019-04-16T19:19:45.454Z,39.81
2019-04-16T19:24:49.380Z,39.89
2019-04-16T19:29:54.236Z,40.46
2019-04-16T19:35:08.909Z,40.64
2019-04-16T19:40:07.254Z,40.98
2019-04-16T19:45:12.796Z,41.20
2019-04-16T19:50:19.105Z,41.50
2019-04-16T19:55:26.188Z,42.02
2019-04-16T20:00:31.629Z,42.26
2019-04-16T20:05:36.730Z,42.50
2019-04-16T20:10:41.737Z,42.71
2019-04-16T20:15:46.416Z,42.95
2019-04-16T20:20:51.210Z,43.18
2019-04-16T20:26:00.401Z,43.38
2019-04-16T20:31:05.502Z,43.54
2019-04-16T20:36:10.152Z,43.67
2019-04-16T20:41:18.968Z,43.68
2019-04-16T20:46:22.751Z,43.93
2019-04-16T20:51:27.786Z,44.57
2019-04-16T20:56:32.299Z,44.37
2019-04-16T21:01:37.955Z,44.94
2019-04-16T21:06:42.956Z,46.40
2019-04-16T21:11:47.698Z,48.06
2019-04-16T21:16:52.530Z,48.76
2019-04-16T21:22:01.165Z,49.16
2019-04-16T21:27:04.629Z,49.83
2019-04-16T21:32:17.447Z,50.35
2019-04-16T21:37:32.555Z,51.08
2019-04-16T21:42:37.010Z,52.02
2019-04-16T21:47:41.553Z,53.07
2019-04-16T21:52:46.134Z,53.72
2019-04-16T21:57:50.772Z,54.85
2019-04-16T22:02:56.144Z,55.68
2019-04-16T22:08:00.604Z,56.50
2019-04-16T22:13:07.293Z,57.16
2019-04-16T22:18:11.723Z,58.68
2019-04-16T22:23:19.212Z,60.75
2019-04-16T22:28:22.895Z,62.78
2019-04-16T22:33:27.325Z,64.71
2019-04-16T22:38:34.284Z,66.63
2019-04-16T22:43:42.646Z,68.27
2019-04-16T22:49:00.429Z,69.43
2019-04-16T22:54:05.074Z,69.80
2019-04-16T22:59:10.521Z,70.14
2019-04-16T23:04:14.990Z,70.13
2019-04-16T23:09:20.374Z,70.28
2019-04-16T23:14:24.887Z,70.53
2019-04-16T23:19:29.457Z,70.72
2019-04-16T23:24:33.942Z,70.70
2019-04-16T23:29:38.360Z,70.79
2019-04-16T23:34:42.862Z,70.84
2019-04-16T23:39:47.337Z,71.03
2019-04-16T23:45:00.387Z,71.20
2019-04-16T23:50:24.019Z,71.58
2019-04-16T23:55:36.877Z,72.33
